Time;durP1;ratioP1;P1;durP2;ratioP2;P2;SDS_P1;SDS_P2;PMS_P1;PMS_P2;Temp;Humidity;BMP_temperature;BMP_pressure;BME280_temperature;BME280_humidity;BME280_pressure;Samples;Min_cycle;Max_cycle;Signal;HPM_P1;HPM_P2
2022/11/19 00:00:19;;;;;;;9.82;3.28;;;;;;;10.50;100.00;93297.88;5096768;28;20036;-85
2022/11/19 00:02:45;;;;;;;5.07;2.60;;;;;;;10.61;100.00;93296.59;5096958;28;20035;-85
2022/11/19 00:05:10;;;;;;;5.88;2.60;;;;;;;10.17;100.00;93283.78;5078985;28;20043;-85
2022/11/19 00:07:36;;;;;;;8.20;2.63;;;;;;;10.26;100.00;93281.28;5078928;28;20104;-85
2022/11/19 00:10:01;;;;;;;5.13;2.22;;;;;;;10.56;100.00;93289.63;5096559;28;20470;-84
2022/11/19 00:15:11;;;;;;;7.07;2.38;;;;;;;10.70;100.00;93281.75;5096659;28;20031;-85
2022/11/19 00:17:36;;;;;;;4.55;1.98;;;;;;;10.73;100.00;93278.53;5078720;28;20028;-85
2022/11/19 00:20:02;;;;;;;9.80;2.22;;;;;;;10.35;100.00;93267.50;5096768;28;20043;-85
2022/11/19 00:22:27;;;;;;;9.15;1.98;;;;;;;10.54;100.00;93267.41;5078262;28;20074;-85
2022/11/19 00:24:53;;;;;;;6.38;1.92;;;;;;;10.79;100.00;93265.31;5078474;28;20322;-85
2022/11/19 00:27:18;;;;;;;4.53;1.70;;;;;;;10.86;100.00;93263.09;5096773;28;20036;-85
2022/11/19 00:29:50;;;;;;;6.35;2.05;;;;;;;10.95;100.00;93257.91;5096742;28;20032;-85
2022/11/19 00:32:15;;;;;;;4.90;1.73;;;;;;;10.92;100.00;93259.28;5078521;28;20031;-85
2022/11/19 00:34:40;;;;;;;4.60;1.92;;;;;;;10.58;100.00;93258.66;5096679;28;20119;-85
2022/11/19 00:37:06;;;;;;;5.68;1.73;;;;;;;10.73;100.00;93272.50;5096639;28;20042;-84
2022/11/19 00:39:33;;;;;;;7.70;1.60;;;;;;;10.93;100.00;93266.06;5078443;28;20032;-85
2022/11/19 00:41:59;;;;;;;4.03;1.90;;;;;;;11.00;100.00;93269.06;5078464;28;20032;-85
2022/11/19 00:44:24;;;;;;;4.95;1.40;;;;;;;11.01;100.00;93272.44;5096953;28;20031;-85
2022/11/19 00:46:50;;;;;;;2.42;1.55;;;;;;;10.94;100.00;93278.09;5082287;28;20035;-85
2022/11/19 00:49:15;;;;;;;4.75;1.88;;;;;;;10.91;100.00;93281.31;5100302;28;20031;-85
2022/11/19 00:51:40;;;;;;;6.40;1.60;;;;;;;10.87;100.00;93283.72;5100109;28;20078;-85
2022/11/19 00:54:06;;;;;;;3.33;1.38;;;;;;;10.81;100.00;93289.38;5100134;28;20043;-85
2022/11/19 00:56:31;;;;;;;6.00;1.42;;;;;;;10.29;100.00;93283.31;5082052;28;20127;-85
2022/11/19 00:58:57;;;;;;;4.63;1.83;;;;;;;10.57;100.00;93283.31;5082014;28;20081;-85
2022/11/19 01:01:24;;;;;;;5.50;1.67;;;;;;;10.67;100.00;93281.56;5081903;28;20398;-85
2022/11/19 01:03:49;;;;;;;3.42;1.83;;;;;;;10.82;100.00;93291.72;5081954;28;20036;-85
2022/11/19 01:06:17;;;;;;;4.50;1.50;;;;;;;10.88;100.00;93293.16;5081554;28;20028;-85
2022/11/19 01:08:43;;;;;;;5.05;1.77;;;;;;;10.73;100.00;93298.72;5081621;28;20364;-85
2022/11/19 01:11:16;;;;;;;5.32;1.65;;;;;;;10.87;100.00;93303.94;5081793;28;20031;-85
2022/11/19 01:13:42;;;;;;;8.45;1.65;;;;;;;10.99;100.00;93306.81;5081544;28;20042;-85
2022/11/19 01:16:16;;;;;;;6.10;1.92;;;;;;;11.17;100.00;93312.97;5081674;28;20039;-84
2022/11/19 01:18:43;;;;;;;4.22;1.60;;;;;;;11.35;100.00;93315.75;5081693;28;20374;-85
2022/11/19 01:21:10;;;;;;;6.40;1.90;;;;;;;11.56;100.00;93317.88;5081198;28;20032;-85
2022/11/19 01:23:36;;;;;;;6.38;2.03;;;;;;;11.61;100.00;93315.13;5081483;28;20115;-85
2022/11/19 01:26:02;;;;;;;6.53;1.70;;;;;;;11.63;100.00;93317.44;5099664;28;20391;-85
2022/11/19 01:28:28;;;;;;;6.07;1.90;;;;;;;11.66;100.00;93309.78;5081449;28;20040;-85
2022/11/19 01:30:53;;;;;;;5.25;1.67;;;;;;;11.77;100.00;93306.91;5081037;28;20047;-85
2022/11/19 01:33:21;;;;;;;6.85;1.80;;;;;;;11.73;100.00;93311.97;5099486;28;20157;-85
2022/11/19 01:36:00;;;;;;;5.78;1.30;;;;;;;11.77;100.00;93309.53;5081618;28;20387;-85
2022/11/19 01:38:27;;;;;;;5.72;1.92;;;;;;;11.94;100.00;93308.81;5081328;28;20345;-85
2022/11/19 01:40:52;;;;;;;3.60;1.30;;;;;;;12.00;100.00;93295.28;5099174;28;20123;-85
2022/11/19 01:43:18;;;;;;;4.20;1.05;;;;;;;12.03;97.96;93304.44;5099465;28;20079;-85
2022/11/19 01:45:48;;;;;;;7.13;1.20;;;;;;;12.20;95.84;93295.88;5081038;28;20032;-85
2022/11/19 01:48:31;;;;;;;7.38;1.75;;;;;;;12.21;90.73;93296.63;5081082;28;20440;-86
2022/11/19 01:51:08;;;;;;;5.65;1.55;;;;;;;12.23;87.81;93292.63;5080767;28;20020;-85
2022/11/19 01:53:34;;;;;;;3.85;0.80;;;;;;;12.13;82.43;93288.41;5080625;28;20725;-85
2022/11/19 01:56:04;;;;;;;5.70;1.30;;;;;;;12.16;79.27;93285.19;5063826;28;20041;-85
2022/11/19 01:58:37;;;;;;;3.65;0.90;;;;;;;12.29;79.21;93278.25;5064483;28;20032;-85
2022/11/19 02:01:04;;;;;;;9.70;1.40;;;;;;;12.17;82.04;93296.44;5080763;28;20063;-85
2022/11/19 02:03:29;;;;;;;3.58;1.10;;;;;;;12.24;80.12;93293.38;5080840;28;20107;-86
2022/11/19 02:05:55;;;;;;;2.97;1.00;;;;;;;12.12;78.58;93301.84;5098510;28;20139;-85
2022/11/19 02:11:00;;;;;;;3.63;1.10;;;;;;;12.23;89.21;93307.59;5055943;28;20048;-86
2022/11/19 02:13:35;;;;;;;5.60;1.20;;;;;;;12.00;94.31;93305.00;5040415;28;20454;-88
2022/11/19 02:16:15;;;;;;;1.70;0.88;;;;;;;11.61;100.00;93302.00;5057701;28;20069;-88
2022/11/19 02:18:40;;;;;;;3.08;1.40;;;;;;;10.78;100.00;93300.44;5046332;28;20124;-88
2022/11/19 02:21:41;;;;;;;4.43;1.10;;;;;;;11.09;100.00;93295.34;5040043;28;20552;-88
2022/11/19 02:24:08;;;;;;;3.47;0.93;;;;;;;11.43;91.42;93301.91;4997090;28;20045;-89
2022/11/19 02:26:57;;;;;;;5.10;0.90;;;;;;;11.65;85.10;93297.72;5040180;28;20044;-86
2022/11/19 02:30:03;;;;;;;5.10;0.93;;;;;;;11.91;82.81;93294.47;5040092;28;20349;-86
2022/11/19 02:32:51;;;;;;;3.95;1.00;;;;;;;12.02;81.79;93295.00;5057392;28;20116;-88
2022/11/19 02:35:26;;;;;;;3.80;0.90;;;;;;;11.97;82.02;93289.84;5029567;28;20047;-88
2022/11/19 02:38:00;;;;;;;3.33;0.95;;;;;;;11.80;85.29;93293.94;5040052;28;20035;-89
2022/11/19 02:40:33;;;;;;;3.30;0.90;;;;;;;11.85;83.98;93288.56;5039817;28;20163;-88
2022/11/19 02:43:30;;;;;;;3.88;1.00;;;;;;;11.96;83.00;93294.34;5040447;28;20025;-86
2022/11/19 02:45:58;;;;;;;2.22;0.80;;;;;;;11.75;84.32;93299.31;5023732;28;20029;-89
2022/11/19 02:48:42;;;;;;;5.82;0.93;;;;;;;11.92;83.00;93308.34;5023595;28;20433;-90
2022/11/19 02:51:08;;;;;;;8.80;1.50;;;;;;;11.94;81.45;93311.44;5023097;28;20059;-90
2022/11/19 02:53:33;;;;;;;3.63;0.93;;;;;;;11.91;80.88;93309.44;5039543;28;20072;-89
2022/11/19 02:56:11;;;;;;;5.80;1.10;;;;;;;11.91;87.77;93307.59;5039836;28;20053;-89
2022/11/19 03:04:31;;;;;;;4.32;0.90;;;;;;;11.15;100.00;93312.50;4943658;29;20517;-90
2022/11/19 03:07:26;;;;;;;4.07;0.70;;;;;;;11.09;100.00;93313.69;4999965;28;20070;-88
2022/11/19 03:09:56;;;;;;;3.55;0.85;;;;;;;11.10;100.00;93303.97;5021920;28;20036;-87
2022/11/19 03:12:42;;;;;;;5.50;0.95;;;;;;;10.95;100.00;93300.59;5023186;28;20091;-87
2022/11/19 03:18:24;;;;;;;5.57;1.08;;;;;;;10.69;100.00;93289.91;5057014;28;20040;-89
2022/11/19 03:21:29;;;;;;;7.57;1.10;;;;;;;10.78;100.00;93298.63;5022548;28;20422;-90
2022/11/19 03:24:00;;;;;;;5.35;1.40;;;;;;;10.60;100.00;93301.06;5023186;28;20127;-89
2022/11/19 03:26:31;;;;;;;2.75;0.73;;;;;;;10.48;100.00;93300.78;5023385;28;20120;-89
2022/11/19 03:28:59;;;;;;;8.65;0.90;;;;;;;10.62;100.00;93310.47;5039156;28;20025;-89
2022/11/19 03:31:25;;;;;;;6.32;1.35;;;;;;;10.49;100.00;93304.97;5038817;28;20024;-89
2022/11/19 03:33:54;;;;;;;3.65;1.20;;;;;;;10.40;100.00;93288.34;5022915;28;20501;-88
2022/11/19 03:36:23;;;;;;;2.08;0.98;;;;;;;10.48;100.00;93294.78;5022896;28;20036;-90
2022/11/19 03:38:51;;;;;;;2.25;0.90;;;;;;;10.38;100.00;93290.47;5022346;28;20033;-87
2022/11/19 03:41:19;;;;;;;6.82;1.23;;;;;;;10.51;100.00;93297.59;5038695;28;20108;-87
2022/11/19 03:43:49;;;;;;;6.05;1.42;;;;;;;10.61;100.00;93299.22;5039024;28;20404;-89
2022/11/19 03:46:16;;;;;;;4.63;1.35;;;;;;;10.71;100.00;93293.78;5039370;28;20070;-90
2022/11/19 03:48:44;;;;;;;5.38;1.38;;;;;;;10.63;100.00;93298.94;5038760;28;20441;-89
2022/11/19 03:51:14;;;;;;;3.22;0.88;;;;;;;10.47;100.00;93293.97;5038696;28;20044;-88
2022/11/19 03:53:39;;;;;;;7.00;1.23;;;;;;;10.49;100.00;93296.31;5038702;28;20074;-87
2022/11/19 03:56:08;;;;;;;4.47;1.25;;;;;;;10.58;100.00;93305.06;5022487;28;20033;-88
2022/11/19 03:58:42;;;;;;;3.88;1.15;;;;;;;10.65;100.00;93302.03;5038938;28;20441;-88
2022/11/19 04:01:08;;;;;;;5.25;1.15;;;;;;;10.78;100.00;93309.09;5038554;28;20017;-89
2022/11/19 04:03:34;;;;;;;3.08;1.13;;;;;;;10.83;100.00;93301.13;5056684;28;20052;-90
2022/11/19 04:06:00;;;;;;;3.17;1.00;;;;;;;10.70;100.00;93300.09;5038680;28;20433;-90
2022/11/19 04:08:25;;;;;;;8.57;1.73;;;;;;;10.79;100.00;93305.41;5038575;28;20036;-90
2022/11/19 04:10:51;;;;;;;8.05;1.40;;;;;;;10.74;100.00;93306.28;5038273;28;20032;-90
2022/11/19 04:13:16;;;;;;;4.55;1.20;;;;;;;10.94;99.29;93314.00;5038533;28;20032;-90
2022/11/19 04:15:42;;;;;;;3.13;1.20;;;;;;;10.71;100.00;93314.75;5038726;28;20539;-88
2022/11/19 04:18:07;;;;;;;6.75;1.00;;;;;;;10.81;95.70;93312.97;5022500;28;20036;-88
2022/11/19 04:20:33;;;;;;;4.53;1.45;;;;;;;10.82;92.51;93311.88;5058496;28;20118;-90
2022/11/19 04:22:58;;;;;;;4.43;1.30;;;;;;;10.84;92.17;93317.63;5042379;28;20037;-89
2022/11/19 04:25:24;;;;;;;6.35;1.42;;;;;;;10.81;88.70;93321.59;5026384;28;20037;-89
2022/11/19 04:27:49;;;;;;;7.57;1.70;;;;;;;10.56;94.23;93321.03;5042627;28;20388;-90
2022/11/19 04:30:15;;;;;;;4.45;1.30;;;;;;;10.50;94.58;93322.22;5042315;28;20036;-89
2022/11/19 04:32:41;;;;;;;5.63;1.63;;;;;;;10.50;97.82;93319.59;5042515;28;20029;-89
2022/11/19 04:35:07;;;;;;;5.32;1.20;;;;;;;10.40;97.80;93317.94;5025925;28;20048;-89
2022/11/19 04:37:32;;;;;;;5.10;1.63;;;;;;;10.34;100.00;93311.22;5026317;28;20410;-90
2022/11/19 04:39:57;;;;;;;9.25;1.23;;;;;;;10.45;100.00;93325.72;5026071;28;20033;-90
2022/11/19 04:42:23;;;;;;;2.78;1.20;;;;;;;10.14;100.00;93325.47;5025627;28;20417;-89
2022/11/19 04:44:48;;;;;;;3.55;1.30;;;;;;;10.35;99.89;93323.25;5026337;28;20028;-89
2022/11/19 04:47:14;;;;;;;3.20;1.30;;;;;;;10.36;95.50;93334.50;5060050;28;20117;-89
2022/11/19 04:49:39;;;;;;;2.92;1.20;;;;;;;9.97;100.00;93339.09;5025859;28;20345;-89
2022/11/19 04:52:05;;;;;;;2.25;1.42;;;;;;;10.21;99.14;93336.34;5059575;28;20033;-89
2022/11/19 04:54:30;;;;;;;4.78;1.52;;;;;;;10.31;95.87;93345.84;5042123;28;20090;-88
2022/11/19 04:56:55;;;;;;;4.97;1.55;;;;;;;9.99;100.00;93340.38;5042128;28;20036;-89
2022/11/19 04:59:29;;;;;;;5.90;1.40;;;;;;;9.96;100.00;93330.50;5041925;28;20025;-89
2022/11/19 05:01:54;;;;;;;3.47;1.75;;;;;;;10.22;92.69;93327.44;5041153;28;20041;-89
2022/11/19 05:04:20;;;;;;;3.72;1.60;;;;;;;10.16;93.61;93318.88;5059578;28;20036;-89
2022/11/19 05:06:45;;;;;;;2.45;1.58;;;;;;;10.17;95.85;93322.28;5041763;28;20028;-89
2022/11/19 05:09:11;;;;;;;4.05;1.60;;;;;;;10.20;94.56;93329.56;5059605;28;20039;-89
2022/11/19 05:11:36;;;;;;;4.05;1.77;;;;;;;10.18;91.89;93326.44;5059059;28;20033;-89
2022/11/19 05:14:03;;;;;;;4.38;1.67;;;;;;;10.08;93.46;93332.63;5025419;28;20048;-89
2022/11/19 05:16:28;;;;;;;6.82;1.77;;;;;;;10.09;95.77;93326.34;5041722;28;20419;-89
2022/11/19 05:18:54;;;;;;;6.30;1.50;;;;;;;9.98;97.21;93338.06;5041662;28;20115;-89
2022/11/19 05:21:19;;;;;;;3.67;1.30;;;;;;;9.71;100.00;93332.47;5041152;28;20021;-89
2022/11/19 05:23:45;;;;;;;3.63;1.58;;;;;;;9.70;100.00;93327.53;5041573;28;20083;-90
2022/11/19 05:26:10;;;;;;;5.60;1.58;;;;;;;9.73;100.00;93330.34;5041111;28;20098;-89
2022/11/19 05:28:36;;;;;;;5.13;1.40;;;;;;;9.37;100.00;93335.34;5025168;28;20029;-89
2022/11/19 05:31:02;;;;;;;3.38;1.58;;;;;;;9.58;100.00;93341.84;5040344;28;20025;-89
2022/11/19 05:33:28;;;;;;;5.45;1.27;;;;;;;9.51;100.00;93338.03;5024872;28;20043;-89
2022/11/19 05:35:53;;;;;;;2.83;1.33;;;;;;;9.64;100.00;93344.34;5024697;28;20139;-89
2022/11/19 05:38:19;;;;;;;3.97;1.20;;;;;;;9.59;100.00;93326.91;5059039;28;20647;-89
2022/11/19 05:40:44;;;;;;;7.65;1.50;;;;;;;9.53;100.00;93330.69;5041294;28;20074;-89
2022/11/19 05:43:10;;;;;;;3.35;1.50;;;;;;;9.83;98.37;93324.19;5041163;28;20040;-89
2022/11/19 05:45:36;;;;;;;5.50;1.63;;;;;;;9.89;97.99;93320.41;5023235;28;20064;-89
2022/11/19 05:48:02;;;;;;;3.08;1.40;;;;;;;9.98;95.53;93319.75;5040872;28;20063;-90
2022/11/19 05:50:27;;;;;;;3.88;1.58;;;;;;;10.01;100.00;93321.78;5040102;28;20074;-89
2022/11/19 05:52:53;;;;;;;4.88;1.40;;;;;;;10.02;100.00;93323.34;5024504;28;20054;-89
2022/11/19 05:55:19;;;;;;;5.40;1.38;;;;;;;10.00;100.00;93326.22;5040981;28;20025;-89
2022/11/19 05:57:45;;;;;;;3.65;1.27;;;;;;;10.11;99.71;93328.66;5041266;28;20321;-90
2022/11/19 06:00:11;;;;;;;3.90;1.30;;;;;;;9.74;100.00;93339.72;5040345;28;20035;-89
2022/11/19 06:02:36;;;;;;;4.78;1.50;;;;;;;9.88;98.68;93339.78;5040822;28;20033;-89
2022/11/19 06:05:02;;;;;;;4.55;1.40;;;;;;;9.91;100.00;93333.22;5040834;28;20036;-89
2022/11/19 06:07:27;;;;;;;4.35;1.50;;;;;;;9.83;99.29;93333.84;5041229;28;20028;-89
2022/11/19 06:09:53;;;;;;;5.70;1.63;;;;;;;9.94;100.00;93335.25;5040654;28;20035;-89
2022/11/19 06:12:18;;;;;;;6.00;1.60;;;;;;;9.91;100.00;93330.59;5040363;28;20036;-89
2022/11/19 06:14:44;;;;;;;11.57;1.65;;;;;;;9.89;97.14;93320.41;5040697;28;20342;-89
2022/11/19 06:17:09;;;;;;;5.05;1.38;;;;;;;9.98;91.51;93317.13;5024495;28;20056;-89
2022/11/19 06:19:35;;;;;;;4.82;1.48;;;;;;;9.91;96.14;93320.13;5024037;28;20087;-89
2022/11/19 06:22:00;;;;;;;6.07;1.58;;;;;;;9.70;100.00;93328.31;5040200;28;20086;-89
2022/11/19 06:24:26;;;;;;;4.80;1.10;;;;;;;9.83;99.34;93323.41;5040636;28;20120;-89
2022/11/19 06:26:51;;;;;;;5.45;1.50;;;;;;;9.77;100.00;93330.53;5040830;28;20029;-89
2022/11/19 06:29:17;;;;;;;4.35;1.35;;;;;;;9.74;98.71;93329.28;5040368;28;20074;-89
2022/11/19 06:31:43;;;;;;;4.93;1.25;;;;;;;9.88;97.72;93331.94;5039933;28;20106;-89
2022/11/19 06:34:09;;;;;;;8.57;1.55;;;;;;;9.99;95.72;93337.75;5040327;28;20025;-89
2022/11/19 06:36:34;;;;;;;2.10;1.30;;;;;;;9.64;100.00;93337.31;5040204;28;20025;-89
2022/11/19 06:39:00;;;;;;;4.55;1.15;;;;;;;9.82;99.22;93345.38;5040063;28;20041;-89
2022/11/19 06:41:25;;;;;;;3.55;1.23;;;;;;;9.88;100.00;93349.47;5039796;28;20106;-89
2022/11/19 06:43:51;;;;;;;2.80;1.40;;;;;;;9.85;100.00;93355.28;5040144;28;20043;-88
2022/11/19 06:46:16;;;;;;;2.92;1.27;;;;;;;9.26;100.00;93358.25;5040037;28;20345;-89
2022/11/19 06:48:42;;;;;;;3.33;1.38;;;;;;;9.44;100.00;93357.47;5057575;28;20033;-89
2022/11/19 06:51:08;;;;;;;4.97;1.15;;;;;;;9.48;100.00;93361.06;5023226;28;20033;-89
2022/11/19 06:53:33;;;;;;;6.28;1.48;;;;;;;9.46;100.00;93365.78;5057659;28;20029;-88
2022/11/19 06:56:00;;;;;;;4.40;1.17;;;;;;;9.84;100.00;93366.81;5039646;28;20025;-89
2022/11/19 06:58:27;;;;;;;6.60;1.27;;;;;;;9.99;100.00;93358.69;5039366;28;20025;-85
2022/11/19 07:00:52;;;;;;;3.47;1.30;;;;;;;9.99;100.00;93363.16;5039027;28;20338;-86
2022/11/19 07:03:18;;;;;;;3.10;1.10;;;;;;;10.19;100.00;93360.19;5057239;28;20039;-86
2022/11/19 07:05:46;;;;;;;3.80;1.30;;;;;;;10.12;100.00;93361.63;5023103;28;20025;-86
2022/11/19 07:08:11;;;;;;;2.33;1.52;;;;;;;10.43;97.52;93361.09;5039381;28;20491;-85
2022/11/19 07:10:37;;;;;;;5.47;1.20;;;;;;;10.44;95.17;93360.81;5038730;28;20032;-85
2022/11/19 07:13:02;;;;;;;2.83;1.25;;;;;;;10.64;95.19;93360.72;5023056;28;20488;-85
2022/11/19 07:15:27;;;;;;;3.35;1.13;;;;;;;10.90;91.09;93366.22;5057048;28;20029;-86
2022/11/19 07:17:53;;;;;;;1.92;1.10;;;;;;;11.11;89.54;93369.22;5039247;28;20349;-85
2022/11/19 07:20:19;;;;;;;4.65;1.17;;;;;;;11.36;90.79;93380.22;5022421;28;20021;-85
2022/11/19 07:22:44;;;;;;;3.38;1.45;;;;;;;11.59;88.37;93386.28;5039138;28;20024;-85
2022/11/19 07:25:12;;;;;;;2.47;1.20;;;;;;;11.77;86.16;93388.25;5023109;28;20040;-85
2022/11/19 07:27:47;;;;;;;2.83;1.20;;;;;;;12.09;85.14;93387.22;5039265;28;20036;-85
2022/11/19 07:30:14;;;;;;;6.13;1.20;;;;;;;12.27;83.25;93380.22;5018894;28;20029;-86
2022/11/19 07:32:40;;;;;;;2.72;1.20;;;;;;;12.54;81.41;93381.13;5035554;28;20037;-85
2022/11/19 07:35:06;;;;;;;4.55;2.05;;;;;;;12.61;82.59;93385.94;5019413;28;20123;-86
2022/11/19 07:37:32;;;;;;;2.60;1.00;;;;;;;12.93;82.90;93389.28;5019385;28;20035;-85
2022/11/19 07:39:57;;;;;;;2.30;1.00;;;;;;;13.11;85.72;93397.97;5019235;28;20029;-86
2022/11/19 07:45:08;;;;;;;5.78;1.50;;;;;;;12.33;85.49;93406.34;5027416;28;20391;-85
2022/11/19 07:47:34;;;;;;;7.25;1.25;;;;;;;12.22;97.44;93406.63;5038603;28;20033;-86
2022/11/19 07:49:59;;;;;;;3.15;1.35;;;;;;;11.82;100.00;93403.88;5038718;28;20349;-86
2022/11/19 07:52:24;;;;;;;6.13;1.50;;;;;;;12.12;100.00;93407.66;5038373;28;20033;-86
2022/11/19 07:54:50;;;;;;;3.05;1.70;;;;;;;11.85;100.00;93404.06;5055974;28;20396;-85
2022/11/19 07:57:15;;;;;;;5.38;1.33;;;;;;;11.81;100.00;93402.31;5022463;28;20029;-85
2022/11/19 07:59:41;;;;;;;4.15;1.52;;;;;;;11.53;100.00;93407.66;5038667;28;20029;-85
2022/11/19 08:02:10;;;;;;;1.90;1.25;;;;;;;11.71;100.00;93400.72;5038121;28;20120;-85
2022/11/19 08:04:35;;;;;;;6.25;1.30;;;;;;;11.68;100.00;93406.53;5038656;28;20426;-86
2022/11/19 08:07:01;;;;;;;4.32;1.55;;;;;;;11.15;100.00;93414.72;5038873;28;20095;-86
2022/11/19 08:09:26;;;;;;;4.72;1.27;;;;;;;11.24;100.00;93417.44;5056323;28;20033;-86
2022/11/19 08:11:51;;;;;;;2.40;1.50;;;;;;;11.68;100.00;93422.28;5055826;28;20033;-85
2022/11/19 08:14:17;;;;;;;4.13;1.65;;;;;;;11.93;100.00;93422.78;5038570;28;20033;-85
2022/11/19 08:19:26;;;;;;;5.45;1.85;;;;;;;12.19;97.86;93420.31;5056228;28;20456;-85
2022/11/19 08:21:52;;;;;;;5.82;1.70;;;;;;;11.76;100.00;93420.78;5037852;28;20033;-85
2022/11/19 08:24:19;;;;;;;4.47;1.58;;;;;;;11.87;100.00;93415.03;5022182;28;20029;-86
2022/11/19 08:26:45;;;;;;;5.97;1.63;;;;;;;11.71;100.00;93414.59;5038393;28;20025;-86
2022/11/19 08:29:15;;;;;;;8.25;1.67;;;;;;;11.85;100.00;93414.56;5038402;28;20025;-85
2022/11/19 08:31:42;;;;;;;5.53;1.88;;;;;;;12.23;98.13;93423.13;5038068;28;20085;-85
2022/11/19 08:34:07;;;;;;;4.22;1.42;;;;;;;12.32;100.00;93426.59;5038409;28;20029;-86
2022/11/19 08:36:33;;;;;;;4.50;1.75;;;;;;;12.33;93.78;93433.41;5056049;28;20036;-86
2022/11/19 08:39:02;;;;;;;6.05;1.70;;;;;;;12.14;100.00;93426.50;5038345;28;20033;-86
2022/11/19 08:44:13;;;;;;;3.53;1.30;;;;;;;12.21;100.00;93418.19;5041038;28;20510;-86
2022/11/19 08:46:39;;;;;;;4.93;1.70;;;;;;;12.28;100.00;93421.16;5038212;28;20128;-86
2022/11/19 08:49:04;;;;;;;3.95;2.08;;;;;;;12.61;100.00;93411.41;5038227;28;20417;-85
2022/11/19 08:51:30;;;;;;;9.73;1.70;;;;;;;12.39;100.00;93419.06;5037774;28;20051;-85
2022/11/19 08:53:55;;;;;;;2.97;1.60;;;;;;;12.76;100.00;93416.28;5038002;28;20091;-86
2022/11/19 08:56:22;;;;;;;6.20;1.60;;;;;;;13.15;100.00;93414.69;5055944;28;20429;-85
2022/11/19 08:58:47;;;;;;;4.07;2.13;;;;;;;13.31;92.80;93419.50;5038004;28;20337;-85
2022/11/19 09:01:14;;;;;;;5.28;2.60;;;;;;;13.76;79.90;93429.03;5037649;28;20033;-85
2022/11/19 09:03:40;;;;;;;5.80;2.22;;;;;;;13.56;81.56;93438.31;5021889;28;20584;-88
2022/11/19 09:06:06;;;;;;;3.63;1.75;;;;;;;13.51;94.86;93441.09;5038266;28;20115;-84
2022/11/19 09:08:32;;;;;;;7.63;2.00;;;;;;;13.78;95.85;93431.34;5059012;28;20037;-85
2022/11/19 09:10:57;;;;;;;5.97;1.55;;;;;;;13.95;96.89;93427.94;5041151;28;20021;-86
2022/11/19 09:13:23;;;;;;;7.32;1.70;;;;;;;14.44;94.92;93435.59;5041491;28;20119;-86
2022/11/19 09:15:52;;;;;;;3.60;1.50;;;;;;;14.40;88.91;93426.78;5041531;28;20029;-85
2022/11/19 09:18:18;;;;;;;3.78;1.50;;;;;;;13.35;98.89;93424.94;5041591;28;20029;-85
2022/11/19 09:20:43;;;;;;;8.95;1.50;;;;;;;13.69;92.67;93432.13;5040869;28;20035;-85
2022/11/19 09:23:09;;;;;;;5.25;1.55;;;;;;;13.29;97.74;93425.09;5059150;28;20033;-85
2022/11/19 09:25:34;;;;;;;5.03;1.83;;;;;;;13.58;94.00;93438.75;5041358;28;20036;-86
2022/11/19 09:28:00;;;;;;;5.82;1.75;;;;;;;13.90;92.67;93446.53;5041305;28;20453;-85
2022/11/19 09:30:25;;;;;;;7.55;2.08;;;;;;;13.01;99.43;93442.97;5058702;28;20064;-86
2022/11/19 09:32:51;;;;;;;4.72;2.22;;;;;;;13.12;100.00;93444.22;5024836;28;20029;-85
2022/11/19 09:35:17;;;;;;;4.45;2.70;;;;;;;13.45;98.82;93439.69;5041199;28;20499;-85
2022/11/19 09:37:42;;;;;;;4.70;2.80;;;;;;;13.37;99.79;93436.72;5041047;28;20036;-85
2022/11/19 09:40:14;;;;;;;4.88;2.92;;;;;;;14.13;92.06;93437.38;5052450;28;20345;-85
2022/11/19 09:42:44;;;;;;;5.28;2.42;;;;;;;14.56;89.67;93441.00;5057617;28;20114;-85
2022/11/19 09:45:25;;;;;;;6.28;3.10;;;;;;;13.23;99.34;93446.59;5057594;28;20032;-85
2022/11/19 09:48:00;;;;;;;8.50;3.28;;;;;;;13.19;100.00;93451.69;5057566;28;20120;-85
2022/11/19 09:50:33;;;;;;;6.85;3.08;;;;;;;13.00;100.00;93446.66;5040584;28;20072;-86
2022/11/19 09:53:11;;;;;;;7.55;3.05;;;;;;;12.69;100.00;93444.84;5053453;28;20024;-86
2022/11/19 09:55:40;;;;;;;4.20;2.40;;;;;;;13.67;97.32;93442.19;5040768;28;20029;-85
2022/11/19 09:58:12;;;;;;;6.90;2.70;;;;;;;14.20;92.13;93439.53;5040767;28;20029;-86
2022/11/19 10:00:38;;;;;;;6.55;2.67;;;;;;;13.84;94.44;93430.09;5057866;28;20025;-85
2022/11/19 10:03:12;;;;;;;5.20;2.60;;;;;;;13.58;99.86;93425.59;5040344;28;20035;-87
2022/11/19 10:05:53;;;;;;;5.13;2.55;;;;;;;14.29;91.39;93426.34;5040853;28;20028;-86
2022/11/19 10:08:46;;;;;;;7.70;2.60;;;;;;;14.28;91.56;93420.28;5040569;28;20024;-86
2022/11/19 10:11:40;;;;;;;4.78;2.55;;;;;;;14.48;93.18;93414.66;5040214;28;20123;-86
2022/11/19 10:14:44;;;;;;;5.78;2.42;;;;;;;14.56;99.31;93417.28;5058165;28;20025;-85
2022/11/19 10:17:34;;;;;;;6.60;2.50;;;;;;;14.83;93.54;93423.25;5024434;28;20035;-85
2022/11/19 10:20:18;;;;;;;8.63;3.30;;;;;;;13.59;100.00;93423.75;5058085;28;20457;-85
2022/11/19 10:22:47;;;;;;;6.80;3.17;;;;;;;14.11;100.00;93425.59;5058036;28;20358;-86
2022/11/19 10:25:20;;;;;;;6.80;3.10;;;;;;;14.31;95.07;93423.38;5057939;28;20040;-85
2022/11/19 10:27:54;;;;;;;;;;;;;;;13.64;100.00;93416.50;5058435;28;20119;-85
2022/11/19 10:30:23;;;;;;;8.63;3.13;;;;;;;13.13;100.00;93406.34;5040078;28;19909;-86
2022/11/19 10:33:06;;;;;;;6.75;3.40;;;;;;;13.78;100.00;93413.69;5039978;28;20437;-89
2022/11/19 10:35:39;;;;;;;10.50;3.67;;;;;;;13.46;100.00;93401.75;5023567;28;20040;-89
2022/11/19 10:38:40;;;;;;;7.63;3.85;;;;;;;12.63;99.25;93410.03;5040554;28;20087;-89
2022/11/19 10:41:35;;;;;;;10.27;3.47;;;;;;;13.52;100.00;93401.28;5023704;28;20429;-89
2022/11/19 10:44:42;;;;;;;9.32;3.83;;;;;;;13.63;94.96;93407.03;5025655;28;20045;-89
2022/11/19 10:47:28;;;;;;;8.57;3.58;;;;;;;13.65;83.46;93391.72;5057546;28;20064;-89
2022/11/19 10:49:53;;;;;;;7.25;3.30;;;;;;;13.73;84.58;93402.53;5040097;28;20032;-85
2022/11/19 10:52:28;;;;;;;9.73;3.55;;;;;;;14.07;83.47;93401.72;5039430;28;20033;-85
2022/11/19 10:55:21;;;;;;;8.73;3.80;;;;;;;13.98;94.34;93396.47;5057444;28;20112;-84
2022/11/19 10:57:47;;;;;;;10.35;3.75;;;;;;;14.03;99.87;93390.28;5039766;28;20086;-84
2022/11/19 11:00:14;;;;;;;11.13;4.22;;;;;;;13.83;100.00;93381.16;5039035;28;20064;-86
2022/11/19 11:02:44;;;;;;;11.52;3.72;;;;;;;14.42;94.28;93377.16;5039689;28;20033;-85
2022/11/19 11:05:12;;;;;;;11.40;4.35;;;;;;;13.94;100.00;93374.50;5023230;28;20039;-86
2022/11/19 11:07:55;;;;;;;9.85;4.25;;;;;;;13.37;100.00;93378.84;5039304;28;20075;-86
2022/11/19 11:10:53;;;;;;;11.13;5.00;;;;;;;14.21;100.00;93379.72;5022386;28;20488;-87
2022/11/19 11:16:17;;;;;;;8.20;4.05;;;;;;;14.53;96.64;93370.47;5056880;28;20120;-86
2022/11/19 11:18:44;;;;;;;11.77;4.60;;;;;;;13.96;100.00;93363.63;5039196;28;20025;-86
2022/11/19 11:21:41;;;;;;;18.98;5.55;;;;;;;13.18;100.00;93355.44;5038632;28;20064;-87
2022/11/19 11:24:07;;;;;;;14.43;7.45;;;;;;;13.39;100.00;93355.63;5035743;28;20405;-86
2022/11/19 11:26:33;;;;;;;12.45;5.55;;;;;;;13.30;100.00;93357.47;5039003;28;20164;-87
2022/11/19 11:29:01;;;;;;;20.50;6.30;;;;;;;13.36;100.00;93356.25;5038747;28;20107;-87
2022/11/19 11:31:34;;;;;;;31.88;14.27;;;;;;;12.78;100.00;93343.16;5056148;28;20074;-87
2022/11/19 11:34:01;;;;;;;;;;;;;;;12.78;100.00;93343.16;5023378;28;20028;-86
2022/11/19 11:36:28;;;;;;;26.27;12.52;;;;;;;12.82;100.00;93336.22;5022548;28;19908;-89
2022/11/19 11:39:26;;;;;;;32.28;13.90;;;;;;;12.66;100.00;93342.97;5039470;28;20382;-88
2022/11/19 11:41:51;;;;;;;32.08;13.77;;;;;;;12.22;100.00;93337.56;5039055;28;20098;-88
2022/11/19 11:44:19;;;;;;;36.97;15.98;;;;;;;11.87;100.00;93327.63;5039131;28;20025;-88
2022/11/19 11:46:51;;;;;;;30.52;13.98;;;;;;;12.41;100.00;93324.19;5038742;28;20491;-89
2022/11/19 11:49:24;;;;;;;30.35;13.90;;;;;;;12.83;100.00;93329.88;5038776;28;20433;-86
2022/11/19 11:52:08;;;;;;;38.60;15.35;;;;;;;13.28;100.00;93320.16;5038185;28;20499;-86
2022/11/19 11:54:34;;;;;;;36.63;15.57;;;;;;;12.80;100.00;93324.44;5038804;28;20132;-86
2022/11/19 11:57:20;;;;;;;37.55;16.15;;;;;;;12.88;100.00;93318.44;5056438;28;20373;-86
2022/11/19 11:59:46;;;;;;;47.17;17.75;;;;;;;12.15;100.00;93325.66;5035255;28;20029;-85
2022/11/19 12:02:26;;;;;;;43.50;16.60;;;;;;;12.66;100.00;93327.97;5018483;28;20112;-84
2022/11/19 12:04:53;;;;;;;47.53;18.17;;;;;;;12.02;100.00;93329.91;5036486;28;20116;-85